sensor_id;sensor_type;location;lat;lon;timestamp;P1;durP1;ratioP1;P2;durP2;ratioP2
54841;SDS011;40741;45.002;7.536;2024-01-27T00:02:00;145.13;;;79.68;;
54841;SDS011;40741;45.002;7.536;2024-01-27T00:04:26;147.65;;;80.25;;
54841;SDS011;40741;45.002;7.536;2024-01-27T00:06:52;150.20;;;81.85;;
54841;SDS011;40741;45.002;7.536;2024-01-27T00:09:18;141.05;;;78.25;;
54841;SDS011;40741;45.002;7.536;2024-01-27T00:11:44;138.10;;;75.82;;
54841;SDS011;40741;45.002;7.536;2024-01-27T00:14:10;142.65;;;78.78;;
54841;SDS011;40741;45.002;7.536;2024-01-27T00:16:36;140.77;;;78.63;;
54841;SDS011;40741;45.002;7.536;2024-01-27T00:19:02;145.80;;;74.45;;
54841;SDS011;40741;45.002;7.536;2024-01-27T00:21:28;139.75;;;78.20;;
54841;SDS011;40741;45.002;7.536;2024-01-27T00:23:54;143.20;;;78.28;;
54841;SDS011;40741;45.002;7.536;2024-01-27T00:26:25;140.82;;;79.72;;
54841;SDS011;40741;45.002;7.536;2024-01-27T00:28:51;138.43;;;78.93;;
54841;SDS011;40741;45.002;7.536;2024-01-27T00:31:17;144.10;;;77.47;;
54841;SDS011;40741;45.002;7.536;2024-01-27T00:33:43;145.40;;;80.00;;
54841;SDS011;40741;45.002;7.536;2024-01-27T00:36:10;152.48;;;85.20;;
54841;SDS011;40741;45.002;7.536;2024-01-27T00:38:36;153.18;;;84.32;;
54841;SDS011;40741;45.002;7.536;2024-01-27T00:41:03;151.15;;;81.40;;
54841;SDS011;40741;45.002;7.536;2024-01-27T00:43:29;147.63;;;81.82;;
54841;SDS011;40741;45.002;7.536;2024-01-27T00:45:55;142.35;;;82.88;;
54841;SDS011;40741;45.002;7.536;2024-01-27T00:48:21;140.25;;;81.03;;
54841;SDS011;40741;45.002;7.536;2024-01-27T00:50:48;151.93;;;87.43;;
54841;SDS011;40741;45.002;7.536;2024-01-27T00:53:14;161.00;;;90.65;;
54841;SDS011;40741;45.002;7.536;2024-01-27T00:55:40;153.38;;;85.00;;
54841;SDS011;40741;45.002;7.536;2024-01-27T00:58:07;149.90;;;84.43;;
54841;SDS011;40741;45.002;7.536;2024-01-27T01:00:33;156.07;;;89.00;;
54841;SDS011;40741;45.002;7.536;2024-01-27T01:02:59;158.52;;;87.65;;
54841;SDS011;40741;45.002;7.536;2024-01-27T01:05:25;156.55;;;89.47;;
54841;SDS011;40741;45.002;7.536;2024-01-27T01:07:51;157.13;;;88.68;;
54841;SDS011;40741;45.002;7.536;2024-01-27T01:10:16;159.88;;;88.70;;
54841;SDS011;40741;45.002;7.536;2024-01-27T01:12:42;166.68;;;90.03;;
54841;SDS011;40741;45.002;7.536;2024-01-27T01:15:08;157.95;;;85.80;;
54841;SDS011;40741;45.002;7.536;2024-01-27T01:17:34;153.07;;;86.97;;
54841;SDS011;40741;45.002;7.536;2024-01-27T01:20:01;146.02;;;83.28;;
54841;SDS011;40741;45.002;7.536;2024-01-27T01:22:27;151.45;;;87.03;;
54841;SDS011;40741;45.002;7.536;2024-01-27T01:24:53;153.90;;;85.55;;
54841;SDS011;40741;45.002;7.536;2024-01-27T01:27:19;156.13;;;87.90;;
54841;SDS011;40741;45.002;7.536;2024-01-27T01:29:46;154.30;;;83.82;;
54841;SDS011;40741;45.002;7.536;2024-01-27T01:32:12;139.75;;;81.22;;
54841;SDS011;40741;45.002;7.536;2024-01-27T01:34:38;140.52;;;81.40;;
54841;SDS011;40741;45.002;7.536;2024-01-27T01:37:04;134.93;;;81.82;;
54841;SDS011;40741;45.002;7.536;2024-01-27T01:39:30;137.02;;;78.75;;
54841;SDS011;40741;45.002;7.536;2024-01-27T01:41:56;132.95;;;77.93;;
54841;SDS011;40741;45.002;7.536;2024-01-27T01:44:23;134.63;;;78.03;;
54841;SDS011;40741;45.002;7.536;2024-01-27T01:46:52;126.45;;;77.68;;
54841;SDS011;40741;45.002;7.536;2024-01-27T01:49:18;173.73;;;80.45;;
54841;SDS011;40741;45.002;7.536;2024-01-27T01:51:44;137.10;;;78.68;;
54841;SDS011;40741;45.002;7.536;2024-01-27T01:54:10;136.57;;;80.38;;
54841;SDS011;40741;45.002;7.536;2024-01-27T01:56:36;166.77;;;85.30;;
54841;SDS011;40741;45.002;7.536;2024-01-27T01:59:02;143.20;;;83.53;;
54841;SDS011;40741;45.002;7.536;2024-01-27T02:01:28;142.57;;;79.57;;
54841;SDS011;40741;45.002;7.536;2024-01-27T02:03:55;156.13;;;80.75;;
54841;SDS011;40741;45.002;7.536;2024-01-27T02:06:21;139.88;;;75.03;;
54841;SDS011;40741;45.002;7.536;2024-01-27T02:08:47;139.32;;;69.70;;
54841;SDS011;40741;45.002;7.536;2024-01-27T02:11:13;127.10;;;64.03;;
54841;SDS011;40741;45.002;7.536;2024-01-27T02:13:39;120.45;;;58.42;;
54841;SDS011;40741;45.002;7.536;2024-01-27T02:16:05;121.03;;;60.83;;
54841;SDS011;40741;45.002;7.536;2024-01-27T02:18:31;118.28;;;60.35;;
54841;SDS011;40741;45.002;7.536;2024-01-27T02:20:57;122.57;;;74.10;;
54841;SDS011;40741;45.002;7.536;2024-01-27T02:23:23;115.45;;;69.18;;
54841;SDS011;40741;45.002;7.536;2024-01-27T02:25:49;115.50;;;68.38;;
54841;SDS011;40741;45.002;7.536;2024-01-27T02:28:15;107.22;;;68.13;;
54841;SDS011;40741;45.002;7.536;2024-01-27T02:30:42;114.00;;;70.15;;
54841;SDS011;40741;45.002;7.536;2024-01-27T02:33:08;116.38;;;70.18;;
54841;SDS011;40741;45.002;7.536;2024-01-27T02:35:34;115.30;;;69.70;;
54841;SDS011;40741;45.002;7.536;2024-01-27T02:37:59;110.70;;;67.93;;
54841;SDS011;40741;45.002;7.536;2024-01-27T02:40:25;115.05;;;71.00;;
54841;SDS011;40741;45.002;7.536;2024-01-27T02:42:51;111.05;;;70.57;;
54841;SDS011;40741;45.002;7.536;2024-01-27T02:45:17;119.43;;;70.35;;
54841;SDS011;40741;45.002;7.536;2024-01-27T02:47:43;110.88;;;70.97;;
54841;SDS011;40741;45.002;7.536;2024-01-27T02:50:11;110.00;;;68.93;;
54841;SDS011;40741;45.002;7.536;2024-01-27T02:52:37;106.28;;;69.35;;
54841;SDS011;40741;45.002;7.536;2024-01-27T02:55:03;116.38;;;70.10;;
54841;SDS011;40741;45.002;7.536;2024-01-27T02:57:29;115.78;;;71.03;;
54841;SDS011;40741;45.002;7.536;2024-01-27T02:59:55;110.10;;;67.80;;
54841;SDS011;40741;45.002;7.536;2024-01-27T03:02:21;111.45;;;70.03;;
54841;SDS011;40741;45.002;7.536;2024-01-27T03:04:47;106.15;;;66.20;;
54841;SDS011;40741;45.002;7.536;2024-01-27T03:07:13;109.45;;;65.85;;
54841;SDS011;40741;45.002;7.536;2024-01-27T03:09:39;108.45;;;62.97;;
54841;SDS011;40741;45.002;7.536;2024-01-27T03:12:05;108.50;;;62.22;;
54841;SDS011;40741;45.002;7.536;2024-01-27T03:14:31;97.45;;;60.42;;
54841;SDS011;40741;45.002;7.536;2024-01-27T03:16:57;106.07;;;60.22;;
54841;SDS011;40741;45.002;7.536;2024-01-27T03:19:23;100.47;;;60.10;;
54841;SDS011;40741;45.002;7.536;2024-01-27T03:21:49;98.35;;;58.17;;
54841;SDS011;40741;45.002;7.536;2024-01-27T03:24:15;96.00;;;57.45;;
54841;SDS011;40741;45.002;7.536;2024-01-27T03:26:41;91.28;;;53.97;;
54841;SDS011;40741;45.002;7.536;2024-01-27T03:29:07;102.80;;;58.45;;
54841;SDS011;40741;45.002;7.536;2024-01-27T03:31:33;99.80;;;58.40;;
54841;SDS011;40741;45.002;7.536;2024-01-27T03:34:00;98.55;;;56.15;;
54841;SDS011;40741;45.002;7.536;2024-01-27T03:36:26;95.47;;;58.25;;
54841;SDS011;40741;45.002;7.536;2024-01-27T03:38:52;97.65;;;61.90;;
54841;SDS011;40741;45.002;7.536;2024-01-27T03:41:18;100.72;;;62.00;;
54841;SDS011;40741;45.002;7.536;2024-01-27T03:43:44;100.60;;;64.05;;
54841;SDS011;40741;45.002;7.536;2024-01-27T03:46:10;105.63;;;64.90;;
54841;SDS011;40741;45.002;7.536;2024-01-27T03:48:36;102.55;;;65.13;;
54841;SDS011;40741;45.002;7.536;2024-01-27T03:51:02;108.78;;;66.57;;
54841;SDS011;40741;45.002;7.536;2024-01-27T03:53:28;100.15;;;64.93;;
54841;SDS011;40741;45.002;7.536;2024-01-27T03:55:55;103.78;;;64.18;;
54841;SDS011;40741;45.002;7.536;2024-01-27T03:58:23;100.85;;;62.97;;
54841;SDS011;40741;45.002;7.536;2024-01-27T04:00:49;109.38;;;67.82;;
54841;SDS011;40741;45.002;7.536;2024-01-27T04:03:15;110.90;;;66.40;;
54841;SDS011;40741;45.002;7.536;2024-01-27T04:05:41;106.30;;;65.45;;
54841;SDS011;40741;45.002;7.536;2024-01-27T04:08:07;107.40;;;66.25;;
54841;SDS011;40741;45.002;7.536;2024-01-27T04:10:33;104.53;;;66.85;;
54841;SDS011;40741;45.002;7.536;2024-01-27T04:12:59;112.18;;;66.68;;
54841;SDS011;40741;45.002;7.536;2024-01-27T04:15:25;112.80;;;68.13;;
54841;SDS011;40741;45.002;7.536;2024-01-27T04:17:52;108.85;;;63.83;;
54841;SDS011;40741;45.002;7.536;2024-01-27T04:20:19;103.50;;;63.58;;
54841;SDS011;40741;45.002;7.536;2024-01-27T04:22:45;108.35;;;65.97;;
54841;SDS011;40741;45.002;7.536;2024-01-27T04:25:11;106.25;;;63.78;;
54841;SDS011;40741;45.002;7.536;2024-01-27T04:27:37;109.70;;;66.28;;
54841;SDS011;40741;45.002;7.536;2024-01-27T04:30:07;106.60;;;63.78;;
54841;SDS011;40741;45.002;7.536;2024-01-27T04:32:33;106.30;;;64.07;;
54841;SDS011;40741;45.002;7.536;2024-01-27T04:35:00;97.13;;;61.17;;
54841;SDS011;40741;45.002;7.536;2024-01-27T04:37:26;97.88;;;62.55;;
54841;SDS011;40741;45.002;7.536;2024-01-27T04:39:52;101.05;;;61.47;;
54841;SDS011;40741;45.002;7.536;2024-01-27T04:42:18;96.72;;;61.17;;
54841;SDS011;40741;45.002;7.536;2024-01-27T04:44:44;102.60;;;64.22;;
54841;SDS011;40741;45.002;7.536;2024-01-27T04:47:10;101.38;;;63.28;;
54841;SDS011;40741;45.002;7.536;2024-01-27T04:49:36;102.72;;;62.92;;
54841;SDS011;40741;45.002;7.536;2024-01-27T04:52:02;103.38;;;63.25;;
54841;SDS011;40741;45.002;7.536;2024-01-27T04:54:28;103.57;;;64.47;;
54841;SDS011;40741;45.002;7.536;2024-01-27T04:56:54;104.72;;;64.38;;
54841;SDS011;40741;45.002;7.536;2024-01-27T04:59:20;105.35;;;63.40;;
54841;SDS011;40741;45.002;7.536;2024-01-27T05:01:46;106.68;;;65.57;;
54841;SDS011;40741;45.002;7.536;2024-01-27T05:04:12;108.68;;;65.28;;
54841;SDS011;40741;45.002;7.536;2024-01-27T05:06:38;107.40;;;65.50;;
54841;SDS011;40741;45.002;7.536;2024-01-27T05:09:04;107.60;;;67.00;;
54841;SDS011;40741;45.002;7.536;2024-01-27T05:11:31;108.18;;;65.85;;
54841;SDS011;40741;45.002;7.536;2024-01-27T05:14:00;106.68;;;65.72;;
54841;SDS011;40741;45.002;7.536;2024-01-27T05:16:27;104.53;;;65.25;;
54841;SDS011;40741;45.002;7.536;2024-01-27T05:18:53;107.68;;;65.65;;
54841;SDS011;40741;45.002;7.536;2024-01-27T05:21:19;107.57;;;66.80;;
54841;SDS011;40741;45.002;7.536;2024-01-27T05:23:45;99.50;;;63.03;;
54841;SDS011;40741;45.002;7.536;2024-01-27T05:26:11;110.88;;;64.63;;
54841;SDS011;40741;45.002;7.536;2024-01-27T05:28:37;111.75;;;65.32;;
54841;SDS011;40741;45.002;7.536;2024-01-27T05:31:06;109.18;;;65.53;;
54841;SDS011;40741;45.002;7.536;2024-01-27T05:33:33;107.03;;;65.05;;
54841;SDS011;40741;45.002;7.536;2024-01-27T05:35:59;109.50;;;66.50;;
54841;SDS011;40741;45.002;7.536;2024-01-27T05:38:25;108.18;;;66.53;;
54841;SDS011;40741;45.002;7.536;2024-01-27T05:40:53;109.30;;;65.30;;
54841;SDS011;40741;45.002;7.536;2024-01-27T05:43:19;103.65;;;63.80;;
54841;SDS011;40741;45.002;7.536;2024-01-27T05:45:45;102.30;;;65.80;;
54841;SDS011;40741;45.002;7.536;2024-01-27T05:48:11;108.20;;;65.32;;
54841;SDS011;40741;45.002;7.536;2024-01-27T05:50:40;108.30;;;66.00;;
54841;SDS011;40741;45.002;7.536;2024-01-27T05:53:05;105.55;;;65.25;;
54841;SDS011;40741;45.002;7.536;2024-01-27T05:55:31;106.57;;;65.15;;
54841;SDS011;40741;45.002;7.536;2024-01-27T05:57:58;112.85;;;64.20;;
54841;SDS011;40741;45.002;7.536;2024-01-27T06:00:24;112.80;;;68.95;;
54841;SDS011;40741;45.002;7.536;2024-01-27T06:02:50;111.80;;;67.13;;
54841;SDS011;40741;45.002;7.536;2024-01-27T06:05:16;118.63;;;71.85;;
54841;SDS011;40741;45.002;7.536;2024-01-27T06:07:42;111.75;;;71.60;;
54841;SDS011;40741;45.002;7.536;2024-01-27T06:10:10;113.80;;;70.22;;
54841;SDS011;40741;45.002;7.536;2024-01-27T06:12:37;121.88;;;73.18;;
54841;SDS011;40741;45.002;7.536;2024-01-27T06:15:04;132.98;;;77.93;;
54841;SDS011;40741;45.002;7.536;2024-01-27T06:17:31;140.57;;;79.13;;
54841;SDS011;40741;45.002;7.536;2024-01-27T06:19:57;130.73;;;77.07;;
54841;SDS011;40741;45.002;7.536;2024-01-27T06:22:23;124.97;;;74.80;;
54841;SDS011;40741;45.002;7.536;2024-01-27T06:24:49;124.32;;;73.85;;
54841;SDS011;40741;45.002;7.536;2024-01-27T06:27:14;116.07;;;69.95;;
54841;SDS011;40741;45.002;7.536;2024-01-27T06:29:40;118.70;;;70.45;;
54841;SDS011;40741;45.002;7.536;2024-01-27T06:32:07;116.07;;;71.97;;
54841;SDS011;40741;45.002;7.536;2024-01-27T06:34:33;126.88;;;72.32;;
54841;SDS011;40741;45.002;7.536;2024-01-27T06:36:59;115.70;;;69.60;;
54841;SDS011;40741;45.002;7.536;2024-01-27T06:39:25;114.35;;;70.63;;
54841;SDS011;40741;45.002;7.536;2024-01-27T06:41:51;114.68;;;69.80;;
54841;SDS011;40741;45.002;7.536;2024-01-27T06:44:17;112.63;;;66.50;;
54841;SDS011;40741;45.002;7.536;2024-01-27T06:46:43;107.93;;;67.53;;
54841;SDS011;40741;45.002;7.536;2024-01-27T06:49:11;118.68;;;67.90;;
54841;SDS011;40741;45.002;7.536;2024-01-27T06:51:38;122.88;;;67.70;;
54841;SDS011;40741;45.002;7.536;2024-01-27T06:54:04;114.57;;;69.28;;
54841;SDS011;40741;45.002;7.536;2024-01-27T06:56:29;115.57;;;68.30;;
54841;SDS011;40741;45.002;7.536;2024-01-27T06:58:55;117.68;;;67.75;;
54841;SDS011;40741;45.002;7.536;2024-01-27T07:01:21;123.88;;;67.57;;
54841;SDS011;40741;45.002;7.536;2024-01-27T07:03:48;113.35;;;66.95;;
54841;SDS011;40741;45.002;7.536;2024-01-27T07:06:14;122.53;;;67.82;;
54841;SDS011;40741;45.002;7.536;2024-01-27T07:08:40;118.30;;;69.63;;
54841;SDS011;40741;45.002;7.536;2024-01-27T07:11:07;126.28;;;69.35;;
54841;SDS011;40741;45.002;7.536;2024-01-27T07:13:33;120.78;;;71.50;;
54841;SDS011;40741;45.002;7.536;2024-01-27T07:15:59;123.57;;;71.38;;
54841;SDS011;40741;45.002;7.536;2024-01-27T07:18:29;123.63;;;69.70;;
54841;SDS011;40741;45.002;7.536;2024-01-27T07:20:55;129.48;;;73.57;;
54841;SDS011;40741;45.002;7.536;2024-01-27T07:23:24;125.65;;;70.13;;
54841;SDS011;40741;45.002;7.536;2024-01-27T07:25:50;121.15;;;70.45;;
54841;SDS011;40741;45.002;7.536;2024-01-27T07:28:16;120.45;;;70.95;;
54841;SDS011;40741;45.002;7.536;2024-01-27T07:30:43;123.88;;;69.60;;
54841;SDS011;40741;45.002;7.536;2024-01-27T07:33:09;129.55;;;71.53;;
54841;SDS011;40741;45.002;7.536;2024-01-27T07:35:35;129.20;;;71.38;;
54841;SDS011;40741;45.002;7.536;2024-01-27T07:38:01;119.93;;;71.28;;
54841;SDS011;40741;45.002;7.536;2024-01-27T07:40:27;127.97;;;70.70;;
54841;SDS011;40741;45.002;7.536;2024-01-27T07:42:53;117.82;;;70.60;;
54841;SDS011;40741;45.002;7.536;2024-01-27T07:45:19;125.70;;;72.22;;
54841;SDS011;40741;45.002;7.536;2024-01-27T07:47:45;123.07;;;72.18;;
54841;SDS011;40741;45.002;7.536;2024-01-27T07:50:11;119.32;;;69.10;;
54841;SDS011;40741;45.002;7.536;2024-01-27T07:52:37;124.82;;;70.80;;
54841;SDS011;40741;45.002;7.536;2024-01-27T07:55:04;116.90;;;68.60;;
54841;SDS011;40741;45.002;7.536;2024-01-27T07:57:30;119.97;;;71.35;;
54841;SDS011;40741;45.002;7.536;2024-01-27T07:59:57;114.10;;;67.43;;
54841;SDS011;40741;45.002;7.536;2024-01-27T08:02:23;116.40;;;67.03;;
54841;SDS011;40741;45.002;7.536;2024-01-27T08:04:49;118.13;;;67.60;;
54841;SDS011;40741;45.002;7.536;2024-01-27T08:07:15;120.43;;;67.30;;
54841;SDS011;40741;45.002;7.536;2024-01-27T08:09:41;119.22;;;65.45;;
54841;SDS011;40741;45.002;7.536;2024-01-27T08:12:07;114.50;;;62.42;;
54841;SDS011;40741;45.002;7.536;2024-01-27T08:14:33;104.72;;;60.67;;
54841;SDS011;40741;45.002;7.536;2024-01-27T08:17:00;109.97;;;62.97;;
54841;SDS011;40741;45.002;7.536;2024-01-27T08:19:28;109.47;;;60.78;;
54841;SDS011;40741;45.002;7.536;2024-01-27T08:21:54;117.70;;;64.22;;
54841;SDS011;40741;45.002;7.536;2024-01-27T08:24:20;105.53;;;61.53;;
54841;SDS011;40741;45.002;7.536;2024-01-27T08:26:48;111.68;;;60.95;;
54841;SDS011;40741;45.002;7.536;2024-01-27T08:29:14;118.97;;;62.15;;
54841;SDS011;40741;45.002;7.536;2024-01-27T08:31:41;113.85;;;61.40;;
54841;SDS011;40741;45.002;7.536;2024-01-27T08:34:07;106.97;;;60.22;;
54841;SDS011;40741;45.002;7.536;2024-01-27T08:36:33;111.05;;;61.75;;
54841;SDS011;40741;45.002;7.536;2024-01-27T08:39:00;115.47;;;61.83;;
54841;SDS011;40741;45.002;7.536;2024-01-27T08:41:26;107.53;;;61.50;;
54841;SDS011;40741;45.002;7.536;2024-01-27T08:43:52;111.43;;;62.25;;
54841;SDS011;40741;45.002;7.536;2024-01-27T08:46:18;109.93;;;63.95;;
54841;SDS011;40741;45.002;7.536;2024-01-27T08:48:46;116.32;;;67.97;;
54841;SDS011;40741;45.002;7.536;2024-01-27T08:51:12;110.45;;;63.47;;
54841;SDS011;40741;45.002;7.536;2024-01-27T08:53:41;106.90;;;61.78;;
54841;SDS011;40741;45.002;7.536;2024-01-27T08:56:07;101.32;;;60.10;;
54841;SDS011;40741;45.002;7.536;2024-01-27T08:58:33;119.78;;;61.58;;
54841;SDS011;40741;45.002;7.536;2024-01-27T09:00:59;103.57;;;59.15;;
54841;SDS011;40741;45.002;7.536;2024-01-27T09:03:30;101.22;;;59.90;;
54841;SDS011;40741;45.002;7.536;2024-01-27T09:05:56;106.82;;;59.50;;
54841;SDS011;40741;45.002;7.536;2024-01-27T09:08:22;104.90;;;59.22;;
54841;SDS011;40741;45.002;7.536;2024-01-27T09:10:48;101.05;;;58.78;;
54841;SDS011;40741;45.002;7.536;2024-01-27T09:13:14;105.35;;;57.13;;
54841;SDS011;40741;45.002;7.536;2024-01-27T09:15:40;98.78;;;56.47;;
54841;SDS011;40741;45.002;7.536;2024-01-27T09:18:06;108.53;;;58.60;;
54841;SDS011;40741;45.002;7.536;2024-01-27T09:20:32;114.88;;;63.63;;
54841;SDS011;40741;45.002;7.536;2024-01-27T09:22:58;109.00;;;61.50;;
54841;SDS011;40741;45.002;7.536;2024-01-27T09:25:24;123.90;;;64.75;;
54841;SDS011;40741;45.002;7.536;2024-01-27T09:27:50;116.65;;;62.58;;
54841;SDS011;40741;45.002;7.536;2024-01-27T09:30:16;114.95;;;64.80;;
54841;SDS011;40741;45.002;7.536;2024-01-27T09:32:43;112.22;;;64.75;;
54841;SDS011;40741;45.002;7.536;2024-01-27T09:35:09;108.97;;;62.38;;
54841;SDS011;40741;45.002;7.536;2024-01-27T09:37:35;117.50;;;64.90;;
54841;SDS011;40741;45.002;7.536;2024-01-27T09:40:01;120.95;;;67.60;;
54841;SDS011;40741;45.002;7.536;2024-01-27T09:42:29;125.80;;;69.90;;
54841;SDS011;40741;45.002;7.536;2024-01-27T09:44:57;124.03;;;72.15;;
54841;SDS011;40741;45.002;7.536;2024-01-27T09:47:23;135.07;;;76.18;;
54841;SDS011;40741;45.002;7.536;2024-01-27T09:49:49;133.18;;;77.13;;
54841;SDS011;40741;45.002;7.536;2024-01-27T09:52:16;142.95;;;80.50;;
54841;SDS011;40741;45.002;7.536;2024-01-27T09:54:42;126.20;;;72.97;;
54841;SDS011;40741;45.002;7.536;2024-01-27T09:57:08;132.35;;;74.07;;
54841;SDS011;40741;45.002;7.536;2024-01-27T09:59:34;127.45;;;73.88;;
54841;SDS011;40741;45.002;7.536;2024-01-27T10:02:02;126.30;;;71.47;;
54841;SDS011;40741;45.002;7.536;2024-01-27T10:04:29;119.40;;;69.15;;
54841;SDS011;40741;45.002;7.536;2024-01-27T10:06:56;119.10;;;70.68;;
54841;SDS011;40741;45.002;7.536;2024-01-27T10:09:23;110.68;;;64.30;;
54841;SDS011;40741;45.002;7.536;2024-01-27T10:11:49;115.18;;;65.75;;
54841;SDS011;40741;45.002;7.536;2024-01-27T10:14:16;100.90;;;57.13;;
54841;SDS011;40741;45.002;7.536;2024-01-27T10:16:42;100.50;;;56.80;;
54841;SDS011;40741;45.002;7.536;2024-01-27T10:19:12;95.15;;;54.63;;
54841;SDS011;40741;45.002;7.536;2024-01-27T10:21:38;88.25;;;50.28;;
54841;SDS011;40741;45.002;7.536;2024-01-27T10:24:04;76.90;;;47.03;;
54841;SDS011;40741;45.002;7.536;2024-01-27T10:26:31;79.97;;;49.00;;
54841;SDS011;40741;45.002;7.536;2024-01-27T10:28:58;101.43;;;58.17;;
54841;SDS011;40741;45.002;7.536;2024-01-27T10:31:27;104.20;;;59.38;;
54841;SDS011;40741;45.002;7.536;2024-01-27T10:33:54;97.95;;;55.78;;
54841;SDS011;40741;45.002;7.536;2024-01-27T10:36:21;108.03;;;62.88;;
54841;SDS011;40741;45.002;7.536;2024-01-27T10:38:47;110.65;;;64.05;;
54841;SDS011;40741;45.002;7.536;2024-01-27T10:41:16;103.93;;;61.88;;
54841;SDS011;40741;45.002;7.536;2024-01-27T10:43:45;103.00;;;62.83;;
54841;SDS011;40741;45.002;7.536;2024-01-27T10:46:13;103.80;;;61.83;;
54841;SDS011;40741;45.002;7.536;2024-01-27T10:48:40;109.95;;;61.60;;
54841;SDS011;40741;45.002;7.536;2024-01-27T10:51:08;107.93;;;62.00;;
54841;SDS011;40741;45.002;7.536;2024-01-27T10:53:37;110.22;;;64.47;;
54841;SDS011;40741;45.002;7.536;2024-01-27T10:56:04;113.55;;;70.53;;
54841;SDS011;40741;45.002;7.536;2024-01-27T10:58:34;108.50;;;65.47;;
54841;SDS011;40741;45.002;7.536;2024-01-27T11:01:09;106.07;;;65.30;;
54841;SDS011;40741;45.002;7.536;2024-01-27T11:03:39;108.75;;;64.55;;
54841;SDS011;40741;45.002;7.536;2024-01-27T11:06:06;106.85;;;63.25;;
54841;SDS011;40741;45.002;7.536;2024-01-27T11:08:36;95.65;;;59.90;;
54841;SDS011;40741;45.002;7.536;2024-01-27T11:11:02;100.90;;;61.08;;
54841;SDS011;40741;45.002;7.536;2024-01-27T11:13:28;104.68;;;60.70;;
54841;SDS011;40741;45.002;7.536;2024-01-27T11:15:55;103.38;;;61.75;;
54841;SDS011;40741;45.002;7.536;2024-01-27T11:18:23;111.68;;;65.75;;
54841;SDS011;40741;45.002;7.536;2024-01-27T11:20:52;103.28;;;63.03;;
54841;SDS011;40741;45.002;7.536;2024-01-27T11:23:18;106.43;;;63.97;;
54841;SDS011;40741;45.002;7.536;2024-01-27T11:25:44;101.57;;;64.10;;
54841;SDS011;40741;45.002;7.536;2024-01-27T11:28:14;95.95;;;60.00;;
54841;SDS011;40741;45.002;7.536;2024-01-27T11:30:44;97.05;;;60.45;;
54841;SDS011;40741;45.002;7.536;2024-01-27T11:33:11;95.25;;;57.95;;
54841;SDS011;40741;45.002;7.536;2024-01-27T11:35:37;96.63;;;59.28;;
54841;SDS011;40741;45.002;7.536;2024-01-27T11:38:03;103.53;;;60.97;;
54841;SDS011;40741;45.002;7.536;2024-01-27T11:40:29;102.30;;;59.95;;
54841;SDS011;40741;45.002;7.536;2024-01-27T11:42:56;94.28;;;57.63;;
54841;SDS011;40741;45.002;7.536;2024-01-27T11:45:22;89.38;;;55.50;;
54841;SDS011;40741;45.002;7.536;2024-01-27T11:47:48;90.88;;;56.00;;
54841;SDS011;40741;45.002;7.536;2024-01-27T11:50:16;91.10;;;56.45;;
54841;SDS011;40741;45.002;7.536;2024-01-27T11:52:42;93.05;;;54.38;;
54841;SDS011;40741;45.002;7.536;2024-01-27T11:55:08;88.65;;;54.00;;
54841;SDS011;40741;45.002;7.536;2024-01-27T11:57:34;84.50;;;54.00;;
54841;SDS011;40741;45.002;7.536;2024-01-27T12:00:00;77.43;;;48.45;;
54841;SDS011;40741;45.002;7.536;2024-01-27T12:02:26;87.60;;;52.47;;
54841;SDS011;40741;45.002;7.536;2024-01-27T12:04:52;78.20;;;47.50;;
54841;SDS011;40741;45.002;7.536;2024-01-27T12:07:18;59.45;;;37.33;;
54841;SDS011;40741;45.002;7.536;2024-01-27T12:09:45;73.05;;;44.70;;
54841;SDS011;40741;45.002;7.536;2024-01-27T12:12:12;77.07;;;46.38;;
54841;SDS011;40741;45.002;7.536;2024-01-27T12:17:07;79.25;;;47.20;;
54841;SDS011;40741;45.002;7.536;2024-01-27T12:19:34;72.15;;;44.60;;
54841;SDS011;40741;45.002;7.536;2024-01-27T12:22:00;55.45;;;35.83;;
54841;SDS011;40741;45.002;7.536;2024-01-27T12:24:26;61.53;;;38.53;;
54841;SDS011;40741;45.002;7.536;2024-01-27T12:26:52;58.08;;;36.50;;
54841;SDS011;40741;45.002;7.536;2024-01-27T12:29:21;61.30;;;37.42;;
54841;SDS011;40741;45.002;7.536;2024-01-27T12:31:47;52.47;;;31.85;;
54841;SDS011;40741;45.002;7.536;2024-01-27T12:34:13;50.13;;;29.23;;
54841;SDS011;40741;45.002;7.536;2024-01-27T12:36:40;53.20;;;31.30;;
54841;SDS011;40741;45.002;7.536;2024-01-27T12:39:06;58.03;;;35.33;;
54841;SDS011;40741;45.002;7.536;2024-01-27T12:41:32;39.13;;;25.25;;
54841;SDS011;40741;45.002;7.536;2024-01-27T12:43:58;42.00;;;25.90;;
54841;SDS011;40741;45.002;7.536;2024-01-27T12:46:24;40.17;;;25.95;;
54841;SDS011;40741;45.002;7.536;2024-01-27T12:48:51;49.08;;;30.63;;
54841;SDS011;40741;45.002;7.536;2024-01-27T12:51:17;51.72;;;29.88;;
54841;SDS011;40741;45.002;7.536;2024-01-27T12:53:44;39.42;;;26.55;;
54841;SDS011;40741;45.002;7.536;2024-01-27T12:56:10;33.00;;;19.67;;
54841;SDS011;40741;45.002;7.536;2024-01-27T12:58:37;36.60;;;22.13;;
54841;SDS011;40741;45.002;7.536;2024-01-27T13:01:03;25.52;;;16.70;;
54841;SDS011;40741;45.002;7.536;2024-01-27T13:03:29;36.22;;;23.55;;
54841;SDS011;40741;45.002;7.536;2024-01-27T13:05:56;36.83;;;23.67;;
54841;SDS011;40741;45.002;7.536;2024-01-27T13:08:22;46.15;;;28.25;;
54841;SDS011;40741;45.002;7.536;2024-01-27T13:10:48;44.55;;;28.85;;
54841;SDS011;40741;45.002;7.536;2024-01-27T13:13:14;51.10;;;30.83;;
54841;SDS011;40741;45.002;7.536;2024-01-27T13:15:40;30.33;;;19.92;;
54841;SDS011;40741;45.002;7.536;2024-01-27T13:18:06;45.20;;;30.33;;
54841;SDS011;40741;45.002;7.536;2024-01-27T13:20:32;45.65;;;28.95;;
54841;SDS011;40741;45.002;7.536;2024-01-27T13:22:58;41.70;;;27.85;;
54841;SDS011;40741;45.002;7.536;2024-01-27T13:25:25;43.63;;;29.42;;
54841;SDS011;40741;45.002;7.536;2024-01-27T13:27:50;43.28;;;29.20;;
54841;SDS011;40741;45.002;7.536;2024-01-27T13:30:16;44.22;;;27.52;;
54841;SDS011;40741;45.002;7.536;2024-01-27T13:32:43;28.33;;;19.50;;
54841;SDS011;40741;45.002;7.536;2024-01-27T13:35:09;39.70;;;27.15;;
54841;SDS011;40741;45.002;7.536;2024-01-27T13:37:35;36.30;;;21.30;;
54841;SDS011;40741;45.002;7.536;2024-01-27T13:40:02;43.78;;;29.15;;
54841;SDS011;40741;45.002;7.536;2024-01-27T13:42:29;32.70;;;22.45;;
54841;SDS011;40741;45.002;7.536;2024-01-27T13:44:55;40.28;;;27.00;;
54841;SDS011;40741;45.002;7.536;2024-01-27T13:47:21;38.08;;;24.95;;
54841;SDS011;40741;45.002;7.536;2024-01-27T13:49:47;31.85;;;21.23;;
54841;SDS011;40741;45.002;7.536;2024-01-27T13:52:13;41.78;;;27.38;;
54841;SDS011;40741;45.002;7.536;2024-01-27T13:54:39;27.20;;;17.45;;
54841;SDS011;40741;45.002;7.536;2024-01-27T13:57:05;40.70;;;26.27;;
54841;SDS011;40741;45.002;7.536;2024-01-27T13:59:32;26.15;;;18.05;;
54841;SDS011;40741;45.002;7.536;2024-01-27T14:01:58;19.98;;;12.68;;
54841;SDS011;40741;45.002;7.536;2024-01-27T14:04:24;13.27;;;8.73;;
54841;SDS011;40741;45.002;7.536;2024-01-27T14:06:51;30.13;;;20.45;;
54841;SDS011;40741;45.002;7.536;2024-01-27T14:09:18;18.65;;;13.23;;